Current Conditions

Updated: 21-Jun-2018 06:53 AM  
Summary / Temperature Wind Rain






Feels like: 65°F

1-hour difference
4.5°F 4.5°F warmer than last hour.

24-hour difference
2.2°F2.2°F colder than yesterday at this time.

  Today Yesterday
High: 74.0°F
12:00 AM
98.5°F
5:10 PM
Low: 60.9°F
5:40 AM
63.1°F
6:01 AM
Wind from E E
0.6
Gust:  1.0 mph
0 Beaufort - Calm

Today: 6.9 - 11:20 AM
Month: 13.0 mph - Jun 9
Rain Today: 0.00 in
Current Rate (/hr): 0.000 in
Max Rate (/hr):
Rain Yesterday: 0.00 in
Storm Rain: 0.00 in
This Month: 0.00 in
Season Total: 6.40 in
Last Rain Event: 65 days ago
Humidity / Barometer Sun / Moon
Humidity: 74 Decreased 7.0% in the last hour.
Dew Point: 57.2°F Increased 1.8°F in the last hour.
Barometer: 29.919 inHg  
Baro Trend: Rising slowly
Sunrise: 5:39 AM
Sunset: 8:17 PM
Moonrise: 2:22 PM
Moonset: 1:46 AM
Sky Conditions UV Index
Summary: Clear
Visibility: 10 miles
Clouds: None
KVIS - 5:56 AM PDT
Current: 0.0  None 
Thursday: 10.6  Very High 
Friday: 9.6  Very High 
Air Quality Fire Danger
 Good 
Ozone 23 ppb
PM 2.5 5 μg/m3
6:50 AM PDT
Current: 2  Low 

Local Alerts Local Forecast
Local NWS Alerts
Today

Sunny

High 99
Tonight

Clear

Low 60
Fri

Sunny

High 101
Fri night

Clear

Low 65
Sat

Sunny

High 103
Sat night

Clear

Low 67
Sun

Sunny

High 102

Local Radar Local Satellite Neighborhood Cam Sky Cam
Local Radar Local Satellite Neighborhood Cam Sky Cam


Nearby Personal Stations

Weather Underground PWS KCAEXETE7     Weather Underground PWS KCAEXETE6     Weather Underground PWS KCAEXETE11

Nearby Airport Stations

KVIS - Visalia, California, USA
Distance from station: W 14mi, 23km
Updated: Thu, 21-Jun-2018 5:56am PDT
Clear
Clear
 Wind from S
Wind: S 3 mph , 6 km/h
Temperature: 61°F , 16°C
Dew Point: 52°F , 11°C
Humidity: 72%
Barometer: 29.94 inHg , 1013.9 hPa
Clouds: Clear
Visibility: 10 miles , 16 km
2018/06/21 12:56 KVIS 211256Z AUTO 17003KT 10SM CLR 16/11 A2994 RMK AO2 SLP142 T01560106
KPTV - Porterville, California, USA
Distance from station: SSE 19mi, 31km
Updated: Thu, 21-Jun-2018 5:56am PDT
Clear
Clear
 Wind from SSE
Wind: SSE 6 mph , 9 km/h
Temperature: 61°F , 16°C
Dew Point: 54°F , 12°C
Humidity: 77%
Barometer: 29.96 inHg , 1014.6 hPa
Clouds: Clear
Visibility: 10 miles , 16 km
2018/06/21 12:56 KPTV 211256Z AUTO 15005KT 10SM CLR 16/12 A2996 RMK AO2 SLP149 T01610117

Metar display script from Saratoga-Weather.org



Visitor Map